Time;durP1;ratioP1;P1;durP2;ratioP2;P2;SDS_P1;SDS_P2;PMS_P1;PMS_P2;Temp;Humidity;BMP_temperature;BMP_pressure;BME280_temperature;BME280_humidity;BME280_pressure;Samples;Min_cycle;Max_cycle;Signal;HPM_P1;HPM_P2
2022/01/01 00:02:16;;;;;;;1999.90;747.10;;;4.30;99.90;;;;;;4972875;28;20115;-72
2022/01/01 00:04:42;;;;;;;1999.90;767.80;;;4.20;99.90;;;;;;4971893;28;20060;-72
2022/01/01 00:07:11;;;;;;;1884.13;666.85;;;4.10;99.90;;;;;;4972506;28;20026;-72
2022/01/01 00:09:41;;;;;;;1999.90;692.78;;;3.90;99.90;;;;;;4972627;28;20038;-72
2022/01/01 00:12:07;;;;;;;1999.90;743.00;;;3.80;99.90;;;;;;4972429;28;20069;-72
2022/01/01 00:14:34;;;;;;;1999.90;709.53;;;3.80;99.90;;;;;;4972909;28;20039;-72
2022/01/01 00:17:00;;;;;;;1380.50;592.03;;;3.80;99.90;;;;;;4972934;28;20083;-72
2022/01/01 00:19:25;;;;;;;1999.90;658.50;;;3.80;99.90;;;;;;4972134;28;20035;-72
2022/01/01 00:21:51;;;;;;;1999.90;661.83;;;3.90;99.90;;;;;;4972455;28;20118;-72
2022/01/01 00:24:17;;;;;;;1999.90;652.97;;;3.90;99.90;;;;;;4972388;28;20058;-72
2022/01/01 00:26:43;;;;;;;1819.63;603.58;;;3.90;99.90;;;;;;4972279;28;20063;-72
2022/01/01 00:29:09;;;;;;;1999.90;653.05;;;3.70;99.90;;;;;;4972494;28;20023;-72
2022/01/01 00:31:35;;;;;;;1999.90;681.13;;;3.80;99.90;;;;;;4972154;28;20027;-72
2022/01/01 00:34:01;;;;;;;1999.90;698.47;;;3.80;99.90;;;;;;4971849;28;20478;-72
2022/01/01 00:36:27;;;;;;;1999.90;685.20;;;3.80;99.90;;;;;;4972215;28;20450;-72
2022/01/01 00:38:53;;;;;;;1999.90;642.33;;;3.80;99.90;;;;;;4972347;28;20031;-72
2022/01/01 00:41:19;;;;;;;1919.07;624.92;;;3.90;99.90;;;;;;4971860;28;20062;-72
2022/01/01 00:43:45;;;;;;;1999.90;638.10;;;3.80;99.90;;;;;;4972209;28;20027;-72
2022/01/01 00:46:11;;;;;;;1870.32;600.00;;;3.80;99.90;;;;;;4972304;28;20461;-72
2022/01/01 00:48:37;;;;;;;1999.90;624.83;;;3.80;99.90;;;;;;4971741;28;20058;-72
2022/01/01 00:51:03;;;;;;;1529.43;587.83;;;3.80;99.90;;;;;;4971838;28;20069;-72
2022/01/01 00:53:29;;;;;;;1311.78;539.67;;;3.80;99.90;;;;;;4971667;28;20039;-72
2022/01/01 00:55:55;;;;;;;1999.90;636.88;;;3.80;99.90;;;;;;4971966;28;20030;-72
2022/01/01 00:58:21;;;;;;;1611.60;549.10;;;3.80;99.90;;;;;;4971674;28;20469;-72
2022/01/01 01:00:46;;;;;;;1585.13;541.97;;;3.70;99.90;;;;;;4972112;28;20038;-72
2022/01/01 01:03:15;;;;;;;1855.57;564.90;;;3.70;99.90;;;;;;4971765;28;20027;-71
2022/01/01 01:05:43;;;;;;;1596.68;521.83;;;3.80;99.90;;;;;;4972121;28;20466;-71
2022/01/01 01:08:10;;;;;;;1354.63;491.27;;;3.80;99.90;;;;;;4971835;28;20031;-71
2022/01/01 01:10:38;;;;;;;1462.28;490.38;;;3.80;99.90;;;;;;4971720;28;20042;-71
2022/01/01 01:13:05;;;;;;;1022.03;404.90;;;3.80;99.90;;;;;;4971798;28;20034;-71
2022/01/01 01:15:32;;;;;;;859.05;369.88;;;3.70;99.90;;;;;;4971685;28;20492;-71
2022/01/01 01:17:58;;;;;;;727.03;348.80;;;3.70;99.90;;;;;;4975314;28;20035;-71
2022/01/01 01:20:26;;;;;;;706.75;345.27;;;3.80;99.90;;;;;;4974925;28;20550;-71
2022/01/01 01:22:52;;;;;;;694.15;334.55;;;3.80;99.90;;;;;;4974673;28;20035;-71
2022/01/01 01:25:19;;;;;;;630.67;314.92;;;3.80;99.90;;;;;;4974964;28;20044;-71
2022/01/01 01:27:45;;;;;;;638.22;332.20;;;3.80;99.90;;;;;;4975032;28;20043;-71
2022/01/01 01:30:14;;;;;;;638.83;342.17;;;3.90;99.90;;;;;;4975097;28;20054;-71
2022/01/01 01:32:40;;;;;;;575.15;316.58;;;3.90;99.90;;;;;;4974992;28;20026;-71
2022/01/01 01:35:07;;;;;;;629.17;348.08;;;3.90;99.90;;;;;;4974820;28;20026;-71
2022/01/01 01:37:33;;;;;;;629.80;364.50;;;3.90;99.90;;;;;;4974812;28;20465;-71
2022/01/01 01:39:59;;;;;;;616.67;355.02;;;3.90;99.90;;;;;;4974597;28;20027;-71
2022/01/01 01:42:27;;;;;;;652.22;373.27;;;3.90;99.90;;;;;;4974825;28;20047;-71
2022/01/01 01:44:54;;;;;;;646.60;365.08;;;3.90;99.90;;;;;;4974613;28;20428;-72
2022/01/01 01:47:33;;;;;;;551.35;317.58;;;3.90;99.90;;;;;;4974964;28;20027;-71
2022/01/01 01:50:01;;;;;;;532.45;302.58;;;3.90;99.90;;;;;;4974479;28;20153;-71
2022/01/01 01:52:34;;;;;;;654.15;385.80;;;3.90;99.90;;;;;;4974642;28;20058;-71
2022/01/01 01:55:03;;;;;;;633.40;379.73;;;3.90;99.90;;;;;;4974741;28;20023;-71
2022/01/01 01:57:30;;;;;;;693.47;395.27;;;4.00;99.90;;;;;;4974757;28;20027;-72
2022/01/01 01:59:56;;;;;;;625.55;368.50;;;4.00;99.90;;;;;;4974749;28;20038;-72
2022/01/01 02:02:22;;;;;;;654.85;382.92;;;4.00;99.90;;;;;;4974232;28;20385;-71
2022/01/01 02:04:48;;;;;;;633.03;382.50;;;4.00;99.90;;;;;;4974558;28;20031;-71
2022/01/01 02:07:14;;;;;;;592.17;347.00;;;4.00;99.90;;;;;;4974620;28;20096;-71
2022/01/01 02:09:40;;;;;;;641.22;362.35;;;4.00;99.90;;;;;;4974492;28;20031;-71
2022/01/01 02:12:08;;;;;;;596.90;351.55;;;3.90;99.90;;;;;;4974024;28;20371;-72
2022/01/01 02:15:04;;;;;;;691.70;392.42;;;3.90;99.90;;;;;;4974051;28;20070;-71
2022/01/01 02:17:31;;;;;;;665.28;371.58;;;3.90;99.90;;;;;;4974171;28;20061;-71
2022/01/01 02:20:15;;;;;;;652.13;366.83;;;4.00;99.90;;;;;;4974282;28;20039;-71
2022/01/01 02:22:47;;;;;;;655.53;372.38;;;4.10;99.90;;;;;;4973999;28;20050;-71
2022/01/01 02:25:15;;;;;;;564.60;317.80;;;4.00;99.90;;;;;;4974020;28;20093;-71
2022/01/01 02:27:42;;;;;;;544.90;305.23;;;4.00;99.90;;;;;;4973433;28;20029;-71
2022/01/01 02:30:10;;;;;;;551.22;309.83;;;4.10;99.90;;;;;;4974152;28;20038;-71
2022/01/01 02:32:36;;;;;;;590.78;322.42;;;4.10;99.90;;;;;;4974257;28;20084;-71
2022/01/01 02:35:04;;;;;;;509.02;285.13;;;4.10;99.90;;;;;;4974505;28;20031;-71
2022/01/01 02:37:31;;;;;;;522.65;282.52;;;4.20;99.90;;;;;;4973847;28;20055;-71
2022/01/01 02:39:57;;;;;;;435.80;249.35;;;4.20;99.90;;;;;;4973576;28;20361;-71
2022/01/01 02:42:24;;;;;;;437.77;252.45;;;4.20;99.90;;;;;;4973537;28;20112;-71
2022/01/01 02:44:51;;;;;;;484.58;276.30;;;4.20;99.90;;;;;;4974035;28;20027;-71
2022/01/01 02:47:17;;;;;;;507.45;276.90;;;4.20;99.90;;;;;;4973758;28;20031;-71
2022/01/01 02:49:42;;;;;;;470.60;262.92;;;4.20;99.90;;;;;;4973801;28;20370;-71
2022/01/01 02:52:09;;;;;;;486.48;274.88;;;4.20;99.90;;;;;;4974023;28;20039;-71
2022/01/01 02:54:35;;;;;;;488.50;282.08;;;4.10;99.90;;;;;;4973684;28;20038;-71
2022/01/01 02:57:01;;;;;;;478.42;275.58;;;4.10;99.90;;;;;;4973336;28;20110;-71
2022/01/01 02:59:27;;;;;;;471.08;280.30;;;4.10;99.90;;;;;;4973857;28;20084;-71
2022/01/01 03:01:53;;;;;;;514.08;288.42;;;4.10;99.90;;;;;;4973769;28;20035;-71
2022/01/01 03:04:19;;;;;;;495.08;288.98;;;4.00;99.90;;;;;;4973344;28;20046;-71
2022/01/01 03:06:52;;;;;;;542.15;303.65;;;4.10;99.90;;;;;;4973738;28;20038;-71
2022/01/01 03:09:18;;;;;;;521.65;282.88;;;4.10;99.90;;;;;;4973668;28;20031;-71
2022/01/01 03:11:44;;;;;;;508.60;265.30;;;4.10;99.90;;;;;;4973260;28;20092;-71
2022/01/01 03:14:10;;;;;;;520.92;275.35;;;4.10;99.90;;;;;;4973574;28;20027;-71
2022/01/01 03:16:36;;;;;;;525.85;280.98;;;4.10;99.90;;;;;;4973216;28;20122;-71
2022/01/01 03:19:02;;;;;;;507.85;265.85;;;4.20;99.90;;;;;;4973832;28;20513;-71
2022/01/01 03:21:28;;;;;;;478.58;255.80;;;4.20;99.90;;;;;;4973231;28;20038;-71
2022/01/01 03:23:54;;;;;;;486.23;264.88;;;4.20;99.90;;;;;;4973497;28;20019;-71
2022/01/01 03:26:19;;;;;;;501.10;280.85;;;4.20;99.90;;;;;;4973040;28;20027;-71
2022/01/01 03:28:45;;;;;;;520.58;293.15;;;4.20;99.90;;;;;;4972941;28;20062;-72
2022/01/01 03:31:11;;;;;;;551.08;306.85;;;4.20;99.90;;;;;;4973542;28;20027;-71
2022/01/01 03:33:37;;;;;;;534.65;296.45;;;4.20;99.90;;;;;;4973196;28;20035;-71
2022/01/01 03:36:03;;;;;;;498.65;268.55;;;4.30;99.90;;;;;;4973121;28;20023;-71
2022/01/01 03:38:29;;;;;;;486.42;265.70;;;4.50;99.90;;;;;;4972149;28;20119;-71
2022/01/01 03:40:56;;;;;;;494.25;261.65;;;4.50;99.90;;;;;;4973168;28;20034;-71
2022/01/01 03:43:21;;;;;;;477.23;259.00;;;4.70;99.90;;;;;;4972973;28;20387;-71
2022/01/01 03:45:47;;;;;;;465.92;250.40;;;4.80;99.90;;;;;;4972751;28;20057;-71
2022/01/01 03:48:13;;;;;;;440.73;231.57;;;4.90;99.90;;;;;;4973110;28;20454;-71
2022/01/01 03:50:39;;;;;;;405.88;212.50;;;5.00;99.90;;;;;;4972479;28;20035;-72
2022/01/01 03:53:04;;;;;;;428.58;222.35;;;5.10;99.90;;;;;;4972950;28;20027;-72
2022/01/01 03:55:30;;;;;;;448.20;226.18;;;5.30;99.90;;;;;;4973016;28;20033;-71
2022/01/01 03:57:56;;;;;;;384.55;201.73;;;5.50;99.90;;;;;;4972770;28;20481;-72
2022/01/01 04:00:22;;;;;;;346.10;181.68;;;5.60;99.90;;;;;;4972323;28;20051;-71
2022/01/01 04:02:48;;;;;;;332.92;171.75;;;5.80;99.90;;;;;;4972489;28;20043;-71
2022/01/01 04:05:14;;;;;;;314.55;161.18;;;5.90;99.90;;;;;;4972588;28;20027;-71
2022/01/01 04:07:40;;;;;;;332.05;178.88;;;6.10;99.90;;;;;;4972948;28;20038;-71
2022/01/01 04:10:06;;;;;;;281.10;143.32;;;6.20;99.90;;;;;;4972599;28;20035;-71
2022/01/01 04:12:32;;;;;;;270.23;137.95;;;6.30;99.90;;;;;;4972259;28;20122;-71
2022/01/01 04:15:00;;;;;;;256.08;131.13;;;6.40;99.90;;;;;;4972512;28;20105;-71
2022/01/01 04:17:27;;;;;;;252.93;128.30;;;6.40;99.90;;;;;;4972405;28;20038;-71
2022/01/01 04:19:53;;;;;;;226.68;117.03;;;6.40;99.90;;;;;;4972757;28;20420;-71
2022/01/01 04:22:18;;;;;;;225.88;113.00;;;6.50;99.90;;;;;;4972440;28;20534;-72
2022/01/01 04:24:44;;;;;;;211.30;109.45;;;6.60;99.90;;;;;;4972392;28;20481;-72
2022/01/01 04:27:10;;;;;;;206.63;104.55;;;6.60;99.90;;;;;;4972378;28;20027;-71
2022/01/01 04:29:36;;;;;;;207.98;105.75;;;6.60;99.90;;;;;;4972414;28;20019;-71
2022/01/01 04:32:02;;;;;;;208.18;107.10;;;6.50;99.90;;;;;;4972304;28;20027;-71
2022/01/01 04:34:28;;;;;;;217.95;110.53;;;6.50;99.90;;;;;;4972329;28;20026;-72
2022/01/01 04:37:11;;;;;;;232.85;110.38;;;6.40;99.90;;;;;;4972375;28;20432;-72
2022/01/01 04:39:37;;;;;;;367.77;123.25;;;6.40;99.90;;;;;;4972229;28;20027;-72
2022/01/01 04:42:03;;;;;;;326.58;116.57;;;6.30;99.90;;;;;;4972134;28;20047;-72
2022/01/01 04:44:29;;;;;;;408.95;124.10;;;6.30;99.90;;;;;;4972335;28;20347;-71
2022/01/01 04:46:55;;;;;;;511.40;141.05;;;6.30;99.90;;;;;;4971776;28;20038;-71
2022/01/01 04:49:22;;;;;;;506.42;145.50;;;6.30;99.90;;;;;;4971596;28;20031;-71
2022/01/01 04:51:51;;;;;;;466.63;137.43;;;6.20;99.90;;;;;;4971962;28;20084;-72
2022/01/01 04:54:17;;;;;;;504.23;141.20;;;6.20;99.90;;;;;;4972326;28;20023;-71
2022/01/01 04:56:48;;;;;;;344.73;111.55;;;6.20;99.90;;;;;;4972037;28;20034;-71
2022/01/01 04:59:15;;;;;;;201.38;92.00;;;6.20;99.90;;;;;;4971591;28;20370;-72
2022/01/01 05:01:41;;;;;;;157.23;81.68;;;6.30;99.90;;;;;;4972044;28;20030;-71
2022/01/01 05:04:08;;;;;;;143.27;74.82;;;6.30;99.90;;;;;;4971707;28;20027;-71
2022/01/01 05:06:34;;;;;;;131.63;71.13;;;6.30;99.90;;;;;;4971851;28;20481;-72
2022/01/01 05:09:01;;;;;;;126.20;66.20;;;6.30;99.90;;;;;;4972382;28;20483;-72
2022/01/01 05:11:27;;;;;;;127.13;64.63;;;6.40;99.90;;;;;;4971856;28;20133;-72
2022/01/01 05:13:53;;;;;;;120.97;62.60;;;6.30;99.90;;;;;;4971781;28;20072;-72
2022/01/01 05:16:19;;;;;;;117.55;62.15;;;6.30;99.90;;;;;;4972158;28;20058;-71
2022/01/01 05:18:46;;;;;;;131.18;69.53;;;6.20;99.90;;;;;;4971525;28;20431;-72
2022/01/01 05:21:13;;;;;;;133.80;71.50;;;6.20;99.90;;;;;;4971627;28;20023;-72
2022/01/01 05:23:38;;;;;;;158.30;73.55;;;6.10;99.90;;;;;;4971665;28;20043;-72
2022/01/01 05:26:04;;;;;;;202.18;80.75;;;6.10;99.90;;;;;;4971883;28;20042;-72
2022/01/01 05:28:31;;;;;;;166.90;71.20;;;6.20;99.90;;;;;;4971512;28;20034;-72
2022/01/01 05:30:56;;;;;;;143.18;67.30;;;6.10;99.90;;;;;;4971509;28;20027;-72
2022/01/01 05:33:22;;;;;;;133.77;66.72;;;6.10;99.90;;;;;;4971948;28;20109;-72
2022/01/01 05:35:48;;;;;;;124.32;64.93;;;6.10;99.90;;;;;;4971521;28;20038;-72
2022/01/01 05:38:14;;;;;;;116.53;62.47;;;6.10;99.90;;;;;;4971488;28;20063;-72
2022/01/01 05:40:40;;;;;;;122.07;62.13;;;6.20;99.90;;;;;;4971678;28;20377;-72
2022/01/01 05:43:12;;;;;;;127.88;66.50;;;6.20;99.90;;;;;;4971450;28;20058;-72
2022/01/01 05:45:38;;;;;;;130.98;67.25;;;6.20;99.90;;;;;;4971176;28;20382;-72
2022/01/01 05:48:04;;;;;;;119.13;61.05;;;6.20;99.90;;;;;;4971368;28;20023;-72
2022/01/01 05:50:30;;;;;;;102.78;55.53;;;6.20;99.90;;;;;;4971537;28;20092;-72
2022/01/01 05:52:56;;;;;;;107.50;55.58;;;6.20;99.90;;;;;;4971330;28;20424;-72
2022/01/01 05:55:22;;;;;;;104.53;55.17;;;6.30;99.90;;;;;;4971324;28;20062;-72
2022/01/01 05:57:47;;;;;;;102.75;54.10;;;6.20;99.90;;;;;;4971700;28;20402;-72
2022/01/01 06:00:14;;;;;;;97.97;55.22;;;6.20;99.90;;;;;;4971151;28;20073;-72
2022/01/01 06:02:40;;;;;;;103.68;55.75;;;6.20;99.90;;;;;;4972579;28;20067;-72
2022/01/01 06:05:06;;;;;;;103.82;58.17;;;6.20;99.90;;;;;;4974377;28;20102;-72
2022/01/01 06:07:32;;;;;;;99.57;57.70;;;6.20;99.90;;;;;;4974267;28;20473;-72
2022/01/01 06:09:59;;;;;;;106.97;58.47;;;6.20;99.90;;;;;;4974184;28;20076;-72
2022/01/01 06:12:25;;;;;;;108.53;56.00;;;6.20;99.90;;;;;;4974714;28;20034;-72
2022/01/01 06:14:51;;;;;;;106.68;59.35;;;6.30;99.90;;;;;;4974273;28;20088;-72
2022/01/01 06:17:17;;;;;;;122.55;64.53;;;6.20;99.90;;;;;;4974244;28;20034;-72
2022/01/01 06:19:42;;;;;;;116.13;62.63;;;6.20;99.90;;;;;;4974349;28;20114;-72
2022/01/01 06:22:08;;;;;;;99.68;57.47;;;6.30;99.90;;;;;;4974631;28;20088;-73
2022/01/01 06:24:34;;;;;;;110.60;60.55;;;6.30;99.90;;;;;;4974199;28;20031;-72
2022/01/01 06:27:00;;;;;;;107.07;59.55;;;6.30;99.90;;;;;;4974182;28;20156;-73
2022/01/01 06:29:26;;;;;;;101.60;56.33;;;6.30;99.90;;;;;;4973169;28;20042;-73
2022/01/01 06:31:51;;;;;;;105.85;58.15;;;6.30;99.90;;;;;;4974335;28;20556;-73
2022/01/01 06:34:17;;;;;;;112.55;59.75;;;6.40;99.90;;;;;;4974003;28;20023;-72
2022/01/01 06:36:43;;;;;;;103.07;56.17;;;6.40;99.90;;;;;;4974206;28;20509;-72
2022/01/01 06:39:09;;;;;;;100.60;56.75;;;6.40;99.90;;;;;;4974029;28;20424;-73
2022/01/01 06:41:34;;;;;;;119.97;64.40;;;6.40;99.90;;;;;;4973504;28;20070;-73
2022/01/01 06:44:00;;;;;;;104.00;56.88;;;6.50;99.90;;;;;;4973615;28;20031;-73
2022/01/01 06:46:26;;;;;;;90.90;50.55;;;6.60;99.90;;;;;;4973998;28;20042;-73
2022/01/01 06:48:52;;;;;;;86.57;46.78;;;6.60;99.90;;;;;;4974190;28;20027;-73
2022/01/01 06:51:18;;;;;;;80.30;44.67;;;6.70;99.90;;;;;;4973832;28;20045;-73
2022/01/01 06:53:43;;;;;;;76.70;40.47;;;6.70;99.90;;;;;;4973965;28;20046;-73
2022/01/01 06:56:09;;;;;;;66.47;38.63;;;6.70;99.90;;;;;;4973581;28;20431;-73
2022/01/01 06:58:36;;;;;;;74.45;39.42;;;6.70;99.90;;;;;;4973394;28;20069;-72
2022/01/01 07:01:03;;;;;;;72.38;38.83;;;6.70;99.90;;;;;;4973851;28;20026;-72
2022/01/01 07:03:29;;;;;;;73.40;39.85;;;6.80;99.90;;;;;;4973354;28;20035;-72
2022/01/01 07:05:54;;;;;;;75.82;38.95;;;6.90;99.90;;;;;;4973565;28;20100;-72
2022/01/01 07:08:20;;;;;;;70.97;36.85;;;7.00;99.90;;;;;;4973398;28;20454;-72
2022/01/01 07:10:46;;;;;;;70.70;35.25;;;7.10;99.90;;;;;;4973519;28;20027;-72
2022/01/01 07:13:16;;;;;;;62.92;33.20;;;7.50;99.90;;;;;;4973430;28;20042;-72
2022/01/01 07:15:42;;;;;;;60.33;33.75;;;7.80;99.90;;;;;;4973535;28;20114;-72
2022/01/01 07:18:08;;;;;;;70.72;38.60;;;8.00;99.90;;;;;;4973689;28;20076;-72
2022/01/01 07:20:34;;;;;;;75.35;38.08;;;8.20;99.90;;;;;;4973310;28;20026;-72
2022/01/01 07:23:00;;;;;;;63.03;34.63;;;8.30;99.90;;;;;;4973378;28;20031;-72
2022/01/01 07:25:26;;;;;;;68.80;36.45;;;8.50;99.90;;;;;;4973226;28;20031;-72
2022/01/01 07:27:51;;;;;;;65.78;34.50;;;8.60;99.90;;;;;;4973226;28;20161;-72
2022/01/01 07:30:17;;;;;;;68.72;34.97;;;8.50;99.90;;;;;;4973048;28;20450;-72
2022/01/01 07:32:45;;;;;;;67.28;36.60;;;8.70;99.90;;;;;;4973342;28;20470;-72
2022/01/01 07:35:13;;;;;;;72.82;37.63;;;8.80;99.90;;;;;;4973141;28;20030;-72
2022/01/01 07:37:39;;;;;;;62.97;33.85;;;9.00;99.90;;;;;;4973155;28;20092;-72
2022/01/01 07:40:07;;;;;;;67.07;34.97;;;9.00;99.90;;;;;;4972782;28;20030;-72
2022/01/01 07:42:33;;;;;;;65.10;37.72;;;9.00;99.90;;;;;;4972790;28;20074;-73
2022/01/01 07:44:59;;;;;;;64.00;36.58;;;9.10;99.90;;;;;;4972862;28;20062;-72
2022/01/01 07:47:25;;;;;;;68.05;35.42;;;9.30;99.90;;;;;;4972897;28;20466;-72
2022/01/01 07:49:51;;;;;;;62.38;34.20;;;9.30;99.90;;;;;;4973104;28;20072;-72
2022/01/01 07:52:17;;;;;;;66.30;36.15;;;9.30;99.90;;;;;;4972946;28;20034;-72
2022/01/01 07:54:43;;;;;;;63.90;36.53;;;9.40;99.90;;;;;;4972808;28;20034;-72
2022/01/01 07:57:09;;;;;;;65.57;36.70;;;9.40;99.90;;;;;;4972961;28;20448;-72
2022/01/01 07:59:35;;;;;;;70.30;39.05;;;9.40;99.90;;;;;;4972880;28;20092;-72
2022/01/01 08:02:01;;;;;;;65.75;36.53;;;9.60;99.90;;;;;;4972738;28;20082;-72
2022/01/01 08:04:27;;;;;;;65.72;36.67;;;9.60;99.90;;;;;;4972534;28;20436;-72
2022/01/01 08:06:52;;;;;;;75.63;42.22;;;9.70;99.90;;;;;;4972948;28;20092;-72
2022/01/01 08:09:18;;;;;;;96.53;45.50;;;9.80;99.90;;;;;;4972650;28;20442;-72
2022/01/01 08:11:44;;;;;;;66.00;37.00;;;9.90;99.90;;;;;;4972328;28;20057;-72
2022/01/01 08:14:10;;;;;;;66.00;38.70;;;10.20;99.90;;;;;;4972585;28;20073;-72
2022/01/01 08:16:55;;;;;;;64.90;37.55;;;10.40;99.90;;;;;;4972558;28;20026;-72
2022/01/01 08:19:21;;;;;;;58.25;33.58;;;10.30;99.90;;;;;;4972772;28;20023;-73
2022/01/01 08:21:47;;;;;;;59.38;31.15;;;10.30;99.90;;;;;;4972901;28;20023;-73
2022/01/01 08:24:13;;;;;;;58.50;32.78;;;10.20;99.90;;;;;;4971759;28;20100;-72
2022/01/01 08:26:38;;;;;;;69.57;37.88;;;10.20;99.90;;;;;;4972079;28;20037;-72
2022/01/01 08:29:04;;;;;;;72.78;38.88;;;10.10;99.90;;;;;;4972123;28;20034;-72
2022/01/01 08:31:30;;;;;;;86.93;43.85;;;10.10;99.90;;;;;;4972200;28;20038;-73
2022/01/01 08:33:56;;;;;;;81.45;42.65;;;10.20;99.90;;;;;;4972398;28;20370;-73
2022/01/01 08:36:22;;;;;;;77.35;38.13;;;10.10;99.90;;;;;;4972285;28;20386;-73
2022/01/01 08:38:48;;;;;;;86.57;45.22;;;10.10;99.90;;;;;;4972353;28;20402;-73
2022/01/01 08:41:14;;;;;;;74.03;38.83;;;10.00;99.90;;;;;;4971919;28;20478;-72
2022/01/01 08:43:40;;;;;;;72.38;39.55;;;10.00;99.90;;;;;;4972126;28;20576;-72
2022/01/01 08:46:07;;;;;;;61.85;33.92;;;10.00;99.90;;;;;;4972152;28;20027;-72
2022/01/01 08:48:33;;;;;;;54.85;28.67;;;10.00;99.90;;;;;;4972161;28;20027;-74
2022/01/01 08:50:59;;;;;;;55.40;30.58;;;10.00;99.90;;;;;;4972114;28;20031;-73
2022/01/01 08:53:25;;;;;;;61.42;32.40;;;10.00;99.90;;;;;;4971827;28;20103;-73
2022/01/01 08:55:52;;;;;;;67.28;35.22;;;10.10;99.90;;;;;;4972573;28;20442;-73
2022/01/01 08:58:17;;;;;;;84.95;45.42;;;10.10;99.90;;;;;;4971895;28;20069;-71
2022/01/01 09:00:44;;;;;;;73.57;41.55;;;10.10;99.90;;;;;;4972008;28;20442;-71
2022/01/01 09:03:10;;;;;;;81.22;46.63;;;10.20;99.90;;;;;;4972031;28;20038;-72
2022/01/01 09:05:36;;;;;;;83.68;45.40;;;10.40;99.90;;;;;;4971548;28;20031;-71
2022/01/01 09:08:01;;;;;;;77.95;39.65;;;10.60;99.90;;;;;;4971639;28;20416;-71
2022/01/01 09:10:27;;;;;;;67.35;33.70;;;10.80;99.90;;;;;;4971752;28;20422;-71
2022/01/01 09:12:53;;;;;;;58.55;33.47;;;11.10;99.90;;;;;;4971471;28;20091;-71
2022/01/01 09:15:19;;;;;;;44.90;24.17;;;11.30;99.90;;;;;;4971703;28;20031;-71
2022/01/01 09:17:44;;;;;;;41.75;24.90;;;11.70;99.90;;;;;;4971474;28;20164;-72
2022/01/01 09:20:10;;;;;;;52.92;32.20;;;12.00;99.90;;;;;;4971566;28;20027;-71
2022/01/01 09:22:37;;;;;;;34.83;21.75;;;12.10;99.90;;;;;;4971479;28;20027;-71
2022/01/01 09:25:03;;;;;;;40.72;25.55;;;12.20;99.90;;;;;;4971111;28;20473;-71
2022/01/01 09:27:30;;;;;;;57.00;34.42;;;12.40;99.90;;;;;;4971656;28;20027;-71
2022/01/01 09:29:56;;;;;;;82.22;46.70;;;12.80;99.90;;;;;;4971248;28;20122;-71
2022/01/01 09:32:22;;;;;;;123.15;61.33;;;12.90;99.90;;;;;;4971316;28;20517;-72
2022/01/01 09:34:48;;;;;;;136.30;68.80;;;12.70;99.90;;;;;;4971582;28;20027;-72
2022/01/01 09:37:13;;;;;;;155.40;66.28;;;12.90;99.90;;;;;;4972266;28;20054;-71
2022/01/01 09:39:39;;;;;;;125.10;57.08;;;12.80;99.90;;;;;;4974685;28;20031;-71
2022/01/01 09:42:06;;;;;;;133.27;56.75;;;12.70;99.90;;;;;;4974467;28;20405;-72
2022/01/01 09:44:35;;;;;;;124.97;52.38;;;13.30;99.90;;;;;;4974750;28;20513;-71
2022/01/01 09:47:02;;;;;;;131.35;56.28;;;13.20;99.90;;;;;;4974452;28;20030;-71
2022/01/01 09:49:27;;;;;;;110.88;50.05;;;12.90;99.90;;;;;;4974321;28;20382;-71
2022/01/01 09:51:53;;;;;;;107.13;45.65;;;13.00;99.90;;;;;;4974621;28;20027;-71
2022/01/01 09:54:19;;;;;;;117.50;52.55;;;13.00;99.90;;;;;;4974478;28;20058;-72
2022/01/01 09:56:45;;;;;;;75.50;40.58;;;14.00;99.90;;;;;;4974256;28;20034;-71
2022/01/01 09:59:13;;;;;;;71.55;39.80;;;14.70;99.90;;;;;;4974617;28;20049;-72
2022/01/01 10:01:39;;;;;;;50.13;29.02;;;15.40;99.90;;;;;;4974285;28;20179;-72
2022/01/01 10:04:12;;;;;;;52.67;26.98;;;15.70;99.90;;;;;;4974088;28;20031;-72
2022/01/01 10:06:38;;;;;;;96.85;43.30;;;15.60;99.90;;;;;;4974523;28;20380;-72
2022/01/01 10:09:06;;;;;;;61.30;31.13;;;15.60;99.90;;;;;;4974321;28;20106;-72
2022/01/01 10:11:33;;;;;;;97.80;45.60;;;14.90;99.90;;;;;;4974251;28;20496;-72
2022/01/01 10:14:03;;;;;;;64.63;31.80;;;14.80;99.90;;;;;;4974030;28;20042;-72
2022/01/01 10:16:29;;;;;;;113.30;53.22;;;14.40;99.90;;;;;;4974344;28;20505;-72
2022/01/01 10:18:55;;;;;;;100.78;45.58;;;14.20;99.90;;;;;;4974213;28;20059;-71
2022/01/01 10:21:23;;;;;;;63.50;31.50;;;14.40;99.90;;;;;;4973741;28;20034;-72
2022/01/01 10:23:52;;;;;;;87.47;41.38;;;14.10;99.90;;;;;;4974153;28;20046;-72
2022/01/01 10:29:20;;;;;;;110.28;49.65;;;13.80;99.90;;;;;;4973796;28;20118;-72
2022/01/01 10:32:00;;;;;;;149.82;62.22;;;13.70;99.90;;;;;;4973622;28;20019;-71
2022/01/01 10:34:34;;;;;;;118.22;59.90;;;13.80;99.90;;;;;;4974105;28;20031;-72
2022/01/01 10:37:01;;;;;;;104.60;42.83;;;13.70;99.90;;;;;;4973578;28;20030;-72
2022/01/01 10:39:28;;;;;;;77.70;35.17;;;15.10;99.90;;;;;;4973823;28;20034;-73
2022/01/01 10:41:59;;;;;;;81.32;39.72;;;14.60;99.90;;;;;;4973484;28;20046;-72
2022/01/01 10:44:34;;;;;;;97.70;42.53;;;14.40;99.90;;;;;;4973605;28;20382;-72
2022/01/01 10:47:13;;;;;;;75.38;36.13;;;14.30;99.90;;;;;;4973524;28;20110;-71
2022/01/01 10:52:21;;;;;;;97.35;42.92;;;16.00;99.90;;;;;;4973942;28;20039;-71
2022/01/01 10:54:58;;;;;;;43.60;23.73;;;17.00;99.90;;;;;;4973850;28;20470;-71
2022/01/01 10:57:35;;;;;;;80.32;38.90;;;16.50;99.90;;;;;;4973272;28;20427;-72
2022/01/01 11:00:11;;;;;;;91.63;45.08;;;15.60;99.90;;;;;;4973754;28;20022;-72
2022/01/01 11:02:38;;;;;;;79.25;41.90;;;15.30;99.90;;;;;;4973990;28;20073;-72
2022/01/01 11:05:05;;;;;;;108.63;57.10;;;14.80;99.90;;;;;;4973394;28;20023;-72
2022/01/01 11:07:32;;;;;;;131.20;69.30;;;14.40;99.90;;;;;;4973474;28;20023;-73
2022/01/01 11:09:58;;;;;;;73.88;39.80;;;14.80;99.90;;;;;;4973064;28;20027;-72
2022/01/01 11:12:29;;;;;;;89.63;46.75;;;14.50;99.90;;;;;;4973459;28;20038;-72
2022/01/01 11:14:56;;;;;;;111.63;55.55;;;14.60;99.90;;;;;;4973453;28;20034;-72
2022/01/01 11:17:23;;;;;;;103.28;54.20;;;15.50;99.90;;;;;;4973247;28;20022;-72
2022/01/01 11:19:49;;;;;;;73.78;41.13;;;16.20;99.90;;;;;;4973353;28;20019;-71
2022/01/01 11:22:16;;;;;;;47.83;28.90;;;16.50;99.90;;;;;;4972925;28;20034;-72
2022/01/01 11:24:42;;;;;;;37.47;23.52;;;16.60;99.90;;;;;;4973189;28;20039;-73
2022/01/01 11:27:09;;;;;;;34.53;20.88;;;16.80;99.90;;;;;;4972843;28;20039;-72
2022/01/01 11:29:35;;;;;;;25.80;16.13;;;16.50;99.90;;;;;;4973071;28;20027;-72
2022/01/01 11:32:07;;;;;;;38.75;22.48;;;15.50;99.90;;;;;;4973160;28;20378;-72
2022/01/01 11:34:38;;;;;;;37.92;22.20;;;15.10;99.90;;;;;;4973027;28;20022;-72
2022/01/01 11:37:05;;;;;;;36.20;19.65;;;15.40;99.90;;;;;;4973317;28;20466;-72
2022/01/01 11:39:31;;;;;;;39.22;23.95;;;15.90;99.90;;;;;;4972875;28;20109;-72
2022/01/01 11:42:15;;;;;;;38.50;23.58;;;16.50;99.90;;;;;;4972674;28;20059;-72
2022/01/01 11:44:50;;;;;;;43.83;24.63;;;16.60;99.90;;;;;;4972615;28;20141;-72
2022/01/01 11:47:19;;;;;;;44.35;26.23;;;16.70;99.90;;;;;;4972834;28;20042;-72
2022/01/01 11:49:46;;;;;;;37.17;22.52;;;16.60;99.90;;;;;;4972477;28;20033;-72
2022/01/01 11:52:31;;;;;;;58.95;30.25;;;16.60;99.90;;;;;;4972353;28;20038;-72
2022/01/01 11:55:02;;;;;;;43.55;24.60;;;16.70;99.90;;;;;;4972563;28;20023;-73
2022/01/01 11:57:29;;;;;;;42.20;25.42;;;16.70;99.90;;;;;;4972680;28;20030;-72
2022/01/01 12:00:08;;;;;;;54.00;29.52;;;16.30;99.90;;;;;;4971179;28;20027;-73
2022/01/01 12:02:35;;;;;;;58.22;30.60;;;15.70;99.90;;;;;;4972592;28;20026;-72
2022/01/01 12:05:14;;;;;;;55.78;31.05;;;15.40;99.90;;;;;;4972388;28;20382;-72
2022/01/01 12:07:45;;;;;;;68.88;36.67;;;15.20;99.90;;;;;;4972439;28;20061;-72
2022/01/01 12:10:13;;;;;;;;;;;15.00;99.90;;;;;;4972993;28;20108;-72
2022/01/01 12:12:47;;;;;;;58.47;30.27;;;14.80;99.90;;;;;;4972336;28;19906;-72
2022/01/01 12:15:32;;;;;;;63.88;34.40;;;14.70;99.90;;;;;;4972488;28;20027;-72
2022/01/01 12:18:03;;;;;;;101.22;49.50;;;14.60;99.90;;;;;;4972106;28;20033;-72
2022/01/01 12:20:46;;;;;;;55.70;29.90;;;14.60;99.90;;;;;;4972025;28;20023;-71
2022/01/01 12:23:17;;;;;;;84.72;40.95;;;14.50;99.90;;;;;;4971421;28;20457;-72
2022/01/01 12:25:44;;;;;;;77.03;37.90;;;14.40;99.90;;;;;;4971136;28;20489;-72
2022/01/01 12:28:15;;;;;;;61.22;33.05;;;14.40;99.90;;;;;;4970927;28;20148;-72
2022/01/01 12:30:43;;;;;;;60.00;31.70;;;14.40;99.90;;;;;;4972111;28;20482;-71